GCXO/TFN METAR and TAF weather

Enter ICAO airport designator
Station Type Date Time Source
GCXO METAR 2020/01/23 15:00 UTC NOAA

GCXO 231500Z 29009KT 9999 FEW025 SCT041 15/07 Q1019 NOSIG


Station Type Date Time Source
GCXO Decoded METAR 2020/01/23 15:00 UTC NOAA

Tenerife / Los Rodeos, Spain (GCXO) 28-28N 016-19W 617M
Jan 23, 2020 - 10:00 AM EST / 2020.01.23 1500 UTC
Wind: from the WNW (290 degrees) at 10 MPH (9 KT):0
Visibility: greater than 7 mile(s):0
Sky conditions: partly cloudy
Temperature: 59 F (15 C)
Dew Point: 44 F (7 C)
Relative Humidity: 58%
Pressure (altimeter): 30.09 in. Hg (1019 hPa)
ob: GCXO 231500Z 29009KT 9999 FEW025 SCT041 15/07 Q1019 NOSIG
cycle: 15

Station Type Date Time Source
GCXO TAF 2020/01/23 15:27 UTC NOAA

TAF GCXO 231400Z 2315/2415 29008KT 9999 SCT018 TX15/2315Z TN10/2406Z

Example: see airport list